sensor_id;sensor_type;location;lat;lon;timestamp;P1;durP1;ratioP1;P2;durP2;ratioP2
74926;SDS011;63488;48.092;-1.640;2024-03-08T00:00:51;7.90;;;5.65;;
74926;SDS011;63488;48.092;-1.640;2024-03-08T00:03:16;9.02;;;6.28;;
74926;SDS011;63488;48.092;-1.640;2024-03-08T00:05:42;9.13;;;6.43;;
74926;SDS011;63488;48.092;-1.640;2024-03-08T00:08:07;9.07;;;6.43;;
74926;SDS011;63488;48.092;-1.640;2024-03-08T00:10:35;10.45;;;6.65;;
74926;SDS011;63488;48.092;-1.640;2024-03-08T00:13:00;8.50;;;6.43;;
74926;SDS011;63488;48.092;-1.640;2024-03-08T00:15:26;7.72;;;6.10;;
74926;SDS011;63488;48.092;-1.640;2024-03-08T00:17:52;9.15;;;6.20;;
74926;SDS011;63488;48.092;-1.640;2024-03-08T00:20:18;8.77;;;5.43;;
74926;SDS011;63488;48.092;-1.640;2024-03-08T00:22:44;8.10;;;5.63;;
74926;SDS011;63488;48.092;-1.640;2024-03-08T00:25:09;7.47;;;5.82;;
74926;SDS011;63488;48.092;-1.640;2024-03-08T00:27:34;8.68;;;6.10;;
74926;SDS011;63488;48.092;-1.640;2024-03-08T00:30:00;8.25;;;5.82;;
74926;SDS011;63488;48.092;-1.640;2024-03-08T00:32:25;7.40;;;5.28;;
74926;SDS011;63488;48.092;-1.640;2024-03-08T00:34:52;8.15;;;5.45;;
74926;SDS011;63488;48.092;-1.640;2024-03-08T00:37:18;7.60;;;5.85;;
74926;SDS011;63488;48.092;-1.640;2024-03-08T00:39:43;8.20;;;5.65;;
74926;SDS011;63488;48.092;-1.640;2024-03-08T00:42:08;8.52;;;5.93;;
74926;SDS011;63488;48.092;-1.640;2024-03-08T00:44:34;8.20;;;5.78;;
74926;SDS011;63488;48.092;-1.640;2024-03-08T00:46:59;7.72;;;6.10;;
74926;SDS011;63488;48.092;-1.640;2024-03-08T00:49:24;8.05;;;6.22;;
74926;SDS011;63488;48.092;-1.640;2024-03-08T00:51:50;7.70;;;5.93;;
74926;SDS011;63488;48.092;-1.640;2024-03-08T00:54:15;8.93;;;6.35;;
74926;SDS011;63488;48.092;-1.640;2024-03-08T00:56:41;8.35;;;5.90;;
74926;SDS011;63488;48.092;-1.640;2024-03-08T00:59:07;8.50;;;5.97;;
74926;SDS011;63488;48.092;-1.640;2024-03-08T01:01:32;8.00;;;5.95;;
74926;SDS011;63488;48.092;-1.640;2024-03-08T01:03:57;8.50;;;5.68;;
74926;SDS011;63488;48.092;-1.640;2024-03-08T01:06:23;8.15;;;5.93;;
74926;SDS011;63488;48.092;-1.640;2024-03-08T01:08:49;7.82;;;5.50;;
74926;SDS011;63488;48.092;-1.640;2024-03-08T01:11:17;7.80;;;6.00;;
74926;SDS011;63488;48.092;-1.640;2024-03-08T01:13:43;9.10;;;6.05;;
74926;SDS011;63488;48.092;-1.640;2024-03-08T01:16:08;8.05;;;5.90;;
74926;SDS011;63488;48.092;-1.640;2024-03-08T01:18:33;8.10;;;5.55;;
74926;SDS011;63488;48.092;-1.640;2024-03-08T01:20:59;9.20;;;6.15;;
74926;SDS011;63488;48.092;-1.640;2024-03-08T01:23:24;7.90;;;6.07;;
74926;SDS011;63488;48.092;-1.640;2024-03-08T01:25:49;7.57;;;5.82;;
74926;SDS011;63488;48.092;-1.640;2024-03-08T01:28:22;8.20;;;6.15;;
74926;SDS011;63488;48.092;-1.640;2024-03-08T01:30:47;7.55;;;5.90;;
74926;SDS011;63488;48.092;-1.640;2024-03-08T01:33:15;8.93;;;6.78;;
74926;SDS011;63488;48.092;-1.640;2024-03-08T01:35:40;9.10;;;6.28;;
74926;SDS011;63488;48.092;-1.640;2024-03-08T01:38:06;8.55;;;6.28;;
74926;SDS011;63488;48.092;-1.640;2024-03-08T01:40:31;8.02;;;5.65;;
74926;SDS011;63488;48.092;-1.640;2024-03-08T01:42:57;8.13;;;6.10;;
74926;SDS011;63488;48.092;-1.640;2024-03-08T01:45:22;8.55;;;6.07;;
74926;SDS011;63488;48.092;-1.640;2024-03-08T01:47:47;9.77;;;6.70;;
74926;SDS011;63488;48.092;-1.640;2024-03-08T01:50:13;8.57;;;6.22;;
74926;SDS011;63488;48.092;-1.640;2024-03-08T01:52:38;9.07;;;6.35;;
74926;SDS011;63488;48.092;-1.640;2024-03-08T01:55:04;8.73;;;6.60;;
74926;SDS011;63488;48.092;-1.640;2024-03-08T01:57:32;10.18;;;6.50;;
74926;SDS011;63488;48.092;-1.640;2024-03-08T02:00:01;9.52;;;6.20;;
74926;SDS011;63488;48.092;-1.640;2024-03-08T02:02:28;8.82;;;6.13;;
74926;SDS011;63488;48.092;-1.640;2024-03-08T02:04:56;7.70;;;5.90;;
74926;SDS011;63488;48.092;-1.640;2024-03-08T02:07:21;7.95;;;6.07;;
74926;SDS011;63488;48.092;-1.640;2024-03-08T02:09:47;9.27;;;6.40;;
74926;SDS011;63488;48.092;-1.640;2024-03-08T02:12:12;7.93;;;6.10;;
74926;SDS011;63488;48.092;-1.640;2024-03-08T02:14:37;7.75;;;6.10;;
74926;SDS011;63488;48.092;-1.640;2024-03-08T02:17:05;9.70;;;6.65;;
74926;SDS011;63488;48.092;-1.640;2024-03-08T02:19:30;8.95;;;5.45;;
74926;SDS011;63488;48.092;-1.640;2024-03-08T02:21:55;8.48;;;6.53;;
74926;SDS011;63488;48.092;-1.640;2024-03-08T02:24:21;8.05;;;5.85;;
74926;SDS011;63488;48.092;-1.640;2024-03-08T02:26:48;7.50;;;6.05;;
74926;SDS011;63488;48.092;-1.640;2024-03-08T02:29:14;9.18;;;5.90;;
74926;SDS011;63488;48.092;-1.640;2024-03-08T02:31:39;8.25;;;5.78;;
74926;SDS011;63488;48.092;-1.640;2024-03-08T02:34:05;7.40;;;5.43;;
74926;SDS011;63488;48.092;-1.640;2024-03-08T02:36:30;9.25;;;6.40;;
74926;SDS011;63488;48.092;-1.640;2024-03-08T02:39:00;8.45;;;6.07;;
74926;SDS011;63488;48.092;-1.640;2024-03-08T02:41:26;7.38;;;5.70;;
74926;SDS011;63488;48.092;-1.640;2024-03-08T02:43:51;9.02;;;5.93;;
74926;SDS011;63488;48.092;-1.640;2024-03-08T02:46:16;8.35;;;6.35;;
74926;SDS011;63488;48.092;-1.640;2024-03-08T02:48:42;7.55;;;6.00;;
74926;SDS011;63488;48.092;-1.640;2024-03-08T02:51:07;8.15;;;6.05;;
74926;SDS011;63488;48.092;-1.640;2024-03-08T02:53:32;7.47;;;5.85;;
74926;SDS011;63488;48.092;-1.640;2024-03-08T02:55:57;8.48;;;6.00;;
74926;SDS011;63488;48.092;-1.640;2024-03-08T02:58:23;7.75;;;5.55;;
74926;SDS011;63488;48.092;-1.640;2024-03-08T03:00:48;8.20;;;5.97;;
74926;SDS011;63488;48.092;-1.640;2024-03-08T03:03:13;8.70;;;5.60;;
74926;SDS011;63488;48.092;-1.640;2024-03-08T03:05:39;8.40;;;5.97;;
74926;SDS011;63488;48.092;-1.640;2024-03-08T03:08:06;7.70;;;5.95;;
74926;SDS011;63488;48.092;-1.640;2024-03-08T03:10:33;7.93;;;6.13;;
74926;SDS011;63488;48.092;-1.640;2024-03-08T03:12:59;8.98;;;5.75;;
74926;SDS011;63488;48.092;-1.640;2024-03-08T03:15:24;7.15;;;5.72;;
74926;SDS011;63488;48.092;-1.640;2024-03-08T03:17:50;7.32;;;5.40;;
74926;SDS011;63488;48.092;-1.640;2024-03-08T03:20:18;7.35;;;5.57;;
74926;SDS011;63488;48.092;-1.640;2024-03-08T03:22:57;7.97;;;5.35;;
74926;SDS011;63488;48.092;-1.640;2024-03-08T03:25:23;7.68;;;5.38;;
74926;SDS011;63488;48.092;-1.640;2024-03-08T03:27:54;7.53;;;5.55;;
74926;SDS011;63488;48.092;-1.640;2024-03-08T03:30:22;8.10;;;5.72;;
74926;SDS011;63488;48.092;-1.640;2024-03-08T03:32:50;6.55;;;5.65;;
74926;SDS011;63488;48.092;-1.640;2024-03-08T03:35:16;8.85;;;6.30;;
74926;SDS011;63488;48.092;-1.640;2024-03-08T03:37:42;10.32;;;5.95;;
74926;SDS011;63488;48.092;-1.640;2024-03-08T03:40:16;8.63;;;5.50;;
74926;SDS011;63488;48.092;-1.640;2024-03-08T03:42:43;10.02;;;6.00;;
74926;SDS011;63488;48.092;-1.640;2024-03-08T03:45:10;7.32;;;5.70;;
74926;SDS011;63488;48.092;-1.640;2024-03-08T03:47:35;8.18;;;6.03;;
74926;SDS011;63488;48.092;-1.640;2024-03-08T03:50:01;8.07;;;5.38;;
74926;SDS011;63488;48.092;-1.640;2024-03-08T03:52:28;8.20;;;6.00;;
74926;SDS011;63488;48.092;-1.640;2024-03-08T03:54:53;7.95;;;5.60;;
74926;SDS011;63488;48.092;-1.640;2024-03-08T03:57:18;8.60;;;6.30;;
74926;SDS011;63488;48.092;-1.640;2024-03-08T03:59:45;8.02;;;5.82;;
74926;SDS011;63488;48.092;-1.640;2024-03-08T04:02:12;7.03;;;5.03;;
74926;SDS011;63488;48.092;-1.640;2024-03-08T04:04:38;6.57;;;5.32;;
74926;SDS011;63488;48.092;-1.640;2024-03-08T04:07:03;7.97;;;5.88;;
74926;SDS011;63488;48.092;-1.640;2024-03-08T04:09:30;7.90;;;6.45;;
74926;SDS011;63488;48.092;-1.640;2024-03-08T04:11:55;6.53;;;5.47;;
74926;SDS011;63488;48.092;-1.640;2024-03-08T04:14:21;8.68;;;5.60;;
74926;SDS011;63488;48.092;-1.640;2024-03-08T04:16:48;7.38;;;5.32;;
74926;SDS011;63488;48.092;-1.640;2024-03-08T04:19:13;7.78;;;5.90;;
74926;SDS011;63488;48.092;-1.640;2024-03-08T04:21:38;8.38;;;6.00;;
74926;SDS011;63488;48.092;-1.640;2024-03-08T04:24:04;7.90;;;5.30;;
74926;SDS011;63488;48.092;-1.640;2024-03-08T04:26:29;8.48;;;6.07;;
74926;SDS011;63488;48.092;-1.640;2024-03-08T04:28:54;8.05;;;6.03;;
74926;SDS011;63488;48.092;-1.640;2024-03-08T04:31:20;7.57;;;6.13;;
74926;SDS011;63488;48.092;-1.640;2024-03-08T04:33:46;8.32;;;5.88;;
74926;SDS011;63488;48.092;-1.640;2024-03-08T04:36:12;9.18;;;6.13;;
74926;SDS011;63488;48.092;-1.640;2024-03-08T04:38:38;9.38;;;6.05;;
74926;SDS011;63488;48.092;-1.640;2024-03-08T04:41:06;9.63;;;6.72;;
74926;SDS011;63488;48.092;-1.640;2024-03-08T04:43:31;7.97;;;5.97;;
74926;SDS011;63488;48.092;-1.640;2024-03-08T04:45:56;8.85;;;6.05;;
74926;SDS011;63488;48.092;-1.640;2024-03-08T04:48:22;7.80;;;5.80;;
74926;SDS011;63488;48.092;-1.640;2024-03-08T04:50:47;8.25;;;6.47;;
74926;SDS011;63488;48.092;-1.640;2024-03-08T04:53:12;9.13;;;5.80;;
74926;SDS011;63488;48.092;-1.640;2024-03-08T04:55:38;8.65;;;6.03;;
74926;SDS011;63488;48.092;-1.640;2024-03-08T04:58:04;8.60;;;6.75;;
74926;SDS011;63488;48.092;-1.640;2024-03-08T05:00:31;9.75;;;6.50;;
74926;SDS011;63488;48.092;-1.640;2024-03-08T05:02:56;7.68;;;6.03;;
74926;SDS011;63488;48.092;-1.640;2024-03-08T05:05:22;9.95;;;6.28;;
74926;SDS011;63488;48.092;-1.640;2024-03-08T05:07:47;8.95;;;6.15;;
74926;SDS011;63488;48.092;-1.640;2024-03-08T05:10:13;10.18;;;6.57;;
74926;SDS011;63488;48.092;-1.640;2024-03-08T05:12:42;8.85;;;6.55;;
74926;SDS011;63488;48.092;-1.640;2024-03-08T05:15:08;9.88;;;6.75;;
74926;SDS011;63488;48.092;-1.640;2024-03-08T05:17:33;9.25;;;6.50;;
74926;SDS011;63488;48.092;-1.640;2024-03-08T05:19:59;9.38;;;6.60;;
74926;SDS011;63488;48.092;-1.640;2024-03-08T05:22:24;9.25;;;6.22;;
74926;SDS011;63488;48.092;-1.640;2024-03-08T05:24:51;9.02;;;6.95;;
74926;SDS011;63488;48.092;-1.640;2024-03-08T05:27:16;8.90;;;6.57;;
74926;SDS011;63488;48.092;-1.640;2024-03-08T05:29:41;9.48;;;7.18;;
74926;SDS011;63488;48.092;-1.640;2024-03-08T05:32:06;10.18;;;6.70;;
74926;SDS011;63488;48.092;-1.640;2024-03-08T05:34:32;9.25;;;6.63;;
74926;SDS011;63488;48.092;-1.640;2024-03-08T05:36:57;10.23;;;7.00;;
74926;SDS011;63488;48.092;-1.640;2024-03-08T05:39:23;8.57;;;6.43;;
74926;SDS011;63488;48.092;-1.640;2024-03-08T05:41:49;11.18;;;7.13;;
74926;SDS011;63488;48.092;-1.640;2024-03-08T05:44:15;9.43;;;6.90;;
74926;SDS011;63488;48.092;-1.640;2024-03-08T05:46:43;9.15;;;6.90;;
74926;SDS011;63488;48.092;-1.640;2024-03-08T05:49:08;13.20;;;7.50;;
74926;SDS011;63488;48.092;-1.640;2024-03-08T05:51:35;10.52;;;7.22;;
74926;SDS011;63488;48.092;-1.640;2024-03-08T05:54:01;10.02;;;7.10;;
74926;SDS011;63488;48.092;-1.640;2024-03-08T05:56:28;10.68;;;6.88;;
74926;SDS011;63488;48.092;-1.640;2024-03-08T05:58:54;10.82;;;7.10;;
74926;SDS011;63488;48.092;-1.640;2024-03-08T06:01:19;11.15;;;7.10;;
74926;SDS011;63488;48.092;-1.640;2024-03-08T06:03:44;10.07;;;7.38;;
74926;SDS011;63488;48.092;-1.640;2024-03-08T06:06:13;9.20;;;7.00;;
74926;SDS011;63488;48.092;-1.640;2024-03-08T06:08:39;11.32;;;7.55;;
74926;SDS011;63488;48.092;-1.640;2024-03-08T06:11:04;11.48;;;8.18;;
74926;SDS011;63488;48.092;-1.640;2024-03-08T06:13:34;10.40;;;7.40;;
74926;SDS011;63488;48.092;-1.640;2024-03-08T06:16:00;10.30;;;7.22;;
74926;SDS011;63488;48.092;-1.640;2024-03-08T06:18:30;11.30;;;6.97;;
74926;SDS011;63488;48.092;-1.640;2024-03-08T06:20:55;10.55;;;7.57;;
74926;SDS011;63488;48.092;-1.640;2024-03-08T06:23:20;9.25;;;6.88;;
74926;SDS011;63488;48.092;-1.640;2024-03-08T06:25:46;11.20;;;7.80;;
74926;SDS011;63488;48.092;-1.640;2024-03-08T06:28:12;10.80;;;7.72;;
74926;SDS011;63488;48.092;-1.640;2024-03-08T06:30:38;10.25;;;7.50;;
74926;SDS011;63488;48.092;-1.640;2024-03-08T06:33:03;9.95;;;7.10;;
74926;SDS011;63488;48.092;-1.640;2024-03-08T06:35:28;11.30;;;8.10;;
74926;SDS011;63488;48.092;-1.640;2024-03-08T06:37:57;11.98;;;7.82;;
74926;SDS011;63488;48.092;-1.640;2024-03-08T06:40:23;11.77;;;8.35;;
74926;SDS011;63488;48.092;-1.640;2024-03-08T06:42:50;11.35;;;8.00;;
74926;SDS011;63488;48.092;-1.640;2024-03-08T06:45:18;11.93;;;8.23;;
74926;SDS011;63488;48.092;-1.640;2024-03-08T06:47:48;11.47;;;8.23;;
74926;SDS011;63488;48.092;-1.640;2024-03-08T06:50:15;12.40;;;8.55;;
74926;SDS011;63488;48.092;-1.640;2024-03-08T06:52:42;11.95;;;8.57;;
74926;SDS011;63488;48.092;-1.640;2024-03-08T06:55:10;10.15;;;7.85;;
74926;SDS011;63488;48.092;-1.640;2024-03-08T06:57:40;9.85;;;7.78;;
74926;SDS011;63488;48.092;-1.640;2024-03-08T07:00:10;11.90;;;8.82;;
74926;SDS011;63488;48.092;-1.640;2024-03-08T07:02:51;13.13;;;9.38;;
74926;SDS011;63488;48.092;-1.640;2024-03-08T07:05:19;13.18;;;9.18;;
74926;SDS011;63488;48.092;-1.640;2024-03-08T07:07:45;11.90;;;8.65;;
74926;SDS011;63488;48.092;-1.640;2024-03-08T07:10:13;11.65;;;8.93;;
74926;SDS011;63488;48.092;-1.640;2024-03-08T07:12:40;14.98;;;8.65;;
74926;SDS011;63488;48.092;-1.640;2024-03-08T07:15:06;13.23;;;9.35;;
74926;SDS011;63488;48.092;-1.640;2024-03-08T07:17:31;14.43;;;9.02;;
74926;SDS011;63488;48.092;-1.640;2024-03-08T07:19:59;12.93;;;8.60;;
74926;SDS011;63488;48.092;-1.640;2024-03-08T07:22:24;12.15;;;8.90;;
74926;SDS011;63488;48.092;-1.640;2024-03-08T07:24:50;14.25;;;9.02;;
74926;SDS011;63488;48.092;-1.640;2024-03-08T07:27:35;11.68;;;9.10;;
74926;SDS011;63488;48.092;-1.640;2024-03-08T07:30:01;11.70;;;7.82;;
74926;SDS011;63488;48.092;-1.640;2024-03-08T07:32:27;14.45;;;8.55;;
74926;SDS011;63488;48.092;-1.640;2024-03-08T07:34:55;11.65;;;8.27;;
74926;SDS011;63488;48.092;-1.640;2024-03-08T07:37:20;13.73;;;9.05;;
74926;SDS011;63488;48.092;-1.640;2024-03-08T07:39:46;13.50;;;8.13;;
74926;SDS011;63488;48.092;-1.640;2024-03-08T07:42:11;12.90;;;8.93;;
74926;SDS011;63488;48.092;-1.640;2024-03-08T07:44:37;14.18;;;9.20;;
74926;SDS011;63488;48.092;-1.640;2024-03-08T07:47:02;13.15;;;8.95;;
74926;SDS011;63488;48.092;-1.640;2024-03-08T07:49:28;11.95;;;8.50;;
74926;SDS011;63488;48.092;-1.640;2024-03-08T07:51:55;11.75;;;8.20;;
74926;SDS011;63488;48.092;-1.640;2024-03-08T07:54:20;12.20;;;9.50;;
74926;SDS011;63488;48.092;-1.640;2024-03-08T07:56:45;10.48;;;8.00;;
74926;SDS011;63488;48.092;-1.640;2024-03-08T07:59:11;13.13;;;9.18;;
74926;SDS011;63488;48.092;-1.640;2024-03-08T08:01:37;13.00;;;9.50;;
74926;SDS011;63488;48.092;-1.640;2024-03-08T08:04:02;12.65;;;8.60;;
74926;SDS011;63488;48.092;-1.640;2024-03-08T08:06:28;10.45;;;7.80;;
74926;SDS011;63488;48.092;-1.640;2024-03-08T08:08:57;11.67;;;8.27;;
74926;SDS011;63488;48.092;-1.640;2024-03-08T08:11:22;10.13;;;7.65;;
74926;SDS011;63488;48.092;-1.640;2024-03-08T08:13:47;12.10;;;8.50;;
74926;SDS011;63488;48.092;-1.640;2024-03-08T08:16:13;11.55;;;8.55;;
74926;SDS011;63488;48.092;-1.640;2024-03-08T08:18:38;12.82;;;9.07;;
74926;SDS011;63488;48.092;-1.640;2024-03-08T08:21:04;11.68;;;8.63;;
74926;SDS011;63488;48.092;-1.640;2024-03-08T08:23:31;11.32;;;8.48;;
74926;SDS011;63488;48.092;-1.640;2024-03-08T08:25:56;12.43;;;8.55;;
74926;SDS011;63488;48.092;-1.640;2024-03-08T08:28:22;12.05;;;8.30;;
74926;SDS011;63488;48.092;-1.640;2024-03-08T08:30:47;12.50;;;8.25;;
74926;SDS011;63488;48.092;-1.640;2024-03-08T08:33:14;10.63;;;7.53;;
74926;SDS011;63488;48.092;-1.640;2024-03-08T08:35:39;13.13;;;8.20;;
74926;SDS011;63488;48.092;-1.640;2024-03-08T08:38:04;11.40;;;7.75;;
74926;SDS011;63488;48.092;-1.640;2024-03-08T08:40:30;10.48;;;7.40;;
74926;SDS011;63488;48.092;-1.640;2024-03-08T08:42:58;9.38;;;7.13;;
74926;SDS011;63488;48.092;-1.640;2024-03-08T08:45:25;15.25;;;8.75;;
74926;SDS011;63488;48.092;-1.640;2024-03-08T08:47:50;11.00;;;7.53;;
74926;SDS011;63488;48.092;-1.640;2024-03-08T08:50:15;10.35;;;7.75;;
74926;SDS011;63488;48.092;-1.640;2024-03-08T08:52:41;12.77;;;8.38;;
74926;SDS011;63488;48.092;-1.640;2024-03-08T08:55:08;12.55;;;7.97;;
74926;SDS011;63488;48.092;-1.640;2024-03-08T08:57:34;11.30;;;7.07;;
74926;SDS011;63488;48.092;-1.640;2024-03-08T09:00:00;11.23;;;7.15;;
74926;SDS011;63488;48.092;-1.640;2024-03-08T09:02:26;9.98;;;7.20;;
74926;SDS011;63488;48.092;-1.640;2024-03-08T09:04:51;12.35;;;7.97;;
74926;SDS011;63488;48.092;-1.640;2024-03-08T09:07:16;10.23;;;6.97;;
74926;SDS011;63488;48.092;-1.640;2024-03-08T09:09:44;9.65;;;7.22;;
74926;SDS011;63488;48.092;-1.640;2024-03-08T09:12:09;11.10;;;7.05;;
74926;SDS011;63488;48.092;-1.640;2024-03-08T09:14:38;11.63;;;7.50;;
74926;SDS011;63488;48.092;-1.640;2024-03-08T09:17:05;9.85;;;6.90;;
74926;SDS011;63488;48.092;-1.640;2024-03-08T09:19:31;11.68;;;7.72;;
74926;SDS011;63488;48.092;-1.640;2024-03-08T09:21:57;12.57;;;7.45;;
74926;SDS011;63488;48.092;-1.640;2024-03-08T09:24:23;8.90;;;6.70;;
74926;SDS011;63488;48.092;-1.640;2024-03-08T09:26:48;9.77;;;6.55;;
74926;SDS011;63488;48.092;-1.640;2024-03-08T09:29:13;10.85;;;7.18;;
74926;SDS011;63488;48.092;-1.640;2024-03-08T09:31:39;10.23;;;6.22;;
74926;SDS011;63488;48.092;-1.640;2024-03-08T09:34:05;9.57;;;6.20;;
74926;SDS011;63488;48.092;-1.640;2024-03-08T09:36:33;9.95;;;6.82;;
74926;SDS011;63488;48.092;-1.640;2024-03-08T09:38:58;7.85;;;5.65;;
74926;SDS011;63488;48.092;-1.640;2024-03-08T09:41:25;11.68;;;6.65;;
74926;SDS011;63488;48.092;-1.640;2024-03-08T09:43:51;12.45;;;7.50;;
74926;SDS011;63488;48.092;-1.640;2024-03-08T09:46:16;11.15;;;6.45;;
74926;SDS011;63488;48.092;-1.640;2024-03-08T09:48:44;10.63;;;6.45;;
74926;SDS011;63488;48.092;-1.640;2024-03-08T09:51:11;9.38;;;6.45;;
74926;SDS011;63488;48.092;-1.640;2024-03-08T09:53:40;9.93;;;7.28;;
74926;SDS011;63488;48.092;-1.640;2024-03-08T09:56:06;9.82;;;6.78;;
74926;SDS011;63488;48.092;-1.640;2024-03-08T09:58:31;11.45;;;6.72;;
74926;SDS011;63488;48.092;-1.640;2024-03-08T10:00:59;13.75;;;6.85;;
74926;SDS011;63488;48.092;-1.640;2024-03-08T10:03:29;9.80;;;6.25;;
74926;SDS011;63488;48.092;-1.640;2024-03-08T10:05:56;10.52;;;6.43;;
74926;SDS011;63488;48.092;-1.640;2024-03-08T10:08:25;9.10;;;5.97;;
74926;SDS011;63488;48.092;-1.640;2024-03-08T10:10:50;11.15;;;6.80;;
74926;SDS011;63488;48.092;-1.640;2024-03-08T10:13:16;10.98;;;6.93;;
74926;SDS011;63488;48.092;-1.640;2024-03-08T10:15:45;9.45;;;6.10;;
74926;SDS011;63488;48.092;-1.640;2024-03-08T10:18:10;10.20;;;6.10;;
74926;SDS011;63488;48.092;-1.640;2024-03-08T10:20:36;9.15;;;5.80;;
74926;SDS011;63488;48.092;-1.640;2024-03-08T10:23:01;8.35;;;5.80;;
74926;SDS011;63488;48.092;-1.640;2024-03-08T10:25:28;7.75;;;5.65;;
74926;SDS011;63488;48.092;-1.640;2024-03-08T10:27:55;9.65;;;6.60;;
74926;SDS011;63488;48.092;-1.640;2024-03-08T10:30:21;8.43;;;4.95;;
74926;SDS011;63488;48.092;-1.640;2024-03-08T10:32:46;8.07;;;5.25;;
74926;SDS011;63488;48.092;-1.640;2024-03-08T10:35:12;8.10;;;5.88;;
74926;SDS011;63488;48.092;-1.640;2024-03-08T10:37:50;8.75;;;5.93;;
74926;SDS011;63488;48.092;-1.640;2024-03-08T10:40:23;10.35;;;6.40;;
74926;SDS011;63488;48.092;-1.640;2024-03-08T10:42:52;8.25;;;5.78;;
74926;SDS011;63488;48.092;-1.640;2024-03-08T10:45:35;8.38;;;5.70;;
74926;SDS011;63488;48.092;-1.640;2024-03-08T10:50:44;12.90;;;5.55;;
74926;SDS011;63488;48.092;-1.640;2024-03-08T10:53:15;10.40;;;5.70;;
74926;SDS011;63488;48.092;-1.640;2024-03-08T10:55:42;9.90;;;5.88;;
74926;SDS011;63488;48.092;-1.640;2024-03-08T10:58:07;6.82;;;4.18;;
74926;SDS011;63488;48.092;-1.640;2024-03-08T11:00:33;8.45;;;5.15;;
74926;SDS011;63488;48.092;-1.640;2024-03-08T11:02:58;8.18;;;5.10;;
74926;SDS011;63488;48.092;-1.640;2024-03-08T11:05:58;10.32;;;5.78;;
74926;SDS011;63488;48.092;-1.640;2024-03-08T11:08:20;8.50;;;5.55;;
74926;SDS011;63488;48.092;-1.640;2024-03-08T11:10:49;6.88;;;4.38;;
74926;SDS011;63488;48.092;-1.640;2024-03-08T11:13:34;9.55;;;5.05;;
74926;SDS011;63488;48.092;-1.640;2024-03-08T11:16:01;7.13;;;4.65;;
74926;SDS011;63488;48.092;-1.640;2024-03-08T11:18:26;9.02;;;4.22;;
74926;SDS011;63488;48.092;-1.640;2024-03-08T11:20:54;8.27;;;5.05;;
74926;SDS011;63488;48.092;-1.640;2024-03-08T11:23:22;8.00;;;5.00;;
74926;SDS011;63488;48.092;-1.640;2024-03-08T11:25:47;6.75;;;4.45;;
74926;SDS011;63488;48.092;-1.640;2024-03-08T11:30:45;5.97;;;3.93;;
74926;SDS011;63488;48.092;-1.640;2024-03-08T11:33:13;7.70;;;4.90;;
74926;SDS011;63488;48.092;-1.640;2024-03-08T11:35:39;7.53;;;4.50;;
74926;SDS011;63488;48.092;-1.640;2024-03-08T11:38:05;7.45;;;4.88;;
74926;SDS011;63488;48.092;-1.640;2024-03-08T11:40:32;7.05;;;4.57;;
74926;SDS011;63488;48.092;-1.640;2024-03-08T11:42:58;6.65;;;4.60;;
74926;SDS011;63488;48.092;-1.640;2024-03-08T11:45:24;8.05;;;4.43;;
74926;SDS011;63488;48.092;-1.640;2024-03-08T11:47:50;9.02;;;4.82;;
74926;SDS011;63488;48.092;-1.640;2024-03-08T11:50:15;7.72;;;4.30;;
74926;SDS011;63488;48.092;-1.640;2024-03-08T11:52:40;8.77;;;4.70;;
74926;SDS011;63488;48.092;-1.640;2024-03-08T11:55:07;6.55;;;4.57;;
74926;SDS011;63488;48.092;-1.640;2024-03-08T11:57:33;7.75;;;4.55;;
74926;SDS011;63488;48.092;-1.640;2024-03-08T11:59:59;7.47;;;4.75;;
74926;SDS011;63488;48.092;-1.640;2024-03-08T12:02:32;6.45;;;4.25;;
74926;SDS011;63488;48.092;-1.640;2024-03-08T12:05:00;7.88;;;4.40;;
74926;SDS011;63488;48.092;-1.640;2024-03-08T12:07:26;6.80;;;4.38;;
74926;SDS011;63488;48.092;-1.640;2024-03-08T12:12:41;8.70;;;5.00;;
74926;SDS011;63488;48.092;-1.640;2024-03-08T12:15:08;8.10;;;4.78;;
74926;SDS011;63488;48.092;-1.640;2024-03-08T12:17:33;7.57;;;4.57;;
74926;SDS011;63488;48.092;-1.640;2024-03-08T12:20:10;8.38;;;4.63;;
74926;SDS011;63488;48.092;-1.640;2024-03-08T12:22:40;8.57;;;5.07;;
74926;SDS011;63488;48.092;-1.640;2024-03-08T12:25:06;9.35;;;4.20;;
74926;SDS011;63488;48.092;-1.640;2024-03-08T12:27:35;7.45;;;4.80;;
74926;SDS011;63488;48.092;-1.640;2024-03-08T12:30:15;7.95;;;4.22;;
74926;SDS011;63488;48.092;-1.640;2024-03-08T12:32:40;10.75;;;5.07;;
74926;SDS011;63488;48.092;-1.640;2024-03-08T12:35:12;5.55;;;4.10;;
74926;SDS011;63488;48.092;-1.640;2024-03-08T12:37:38;7.00;;;4.60;;
74926;SDS011;63488;48.092;-1.640;2024-03-08T12:40:06;7.00;;;4.65;;
74926;SDS011;63488;48.092;-1.640;2024-03-08T12:42:32;8.05;;;4.65;;
74926;SDS011;63488;48.092;-1.640;2024-03-08T12:44:57;7.13;;;4.57;;
74926;SDS011;63488;48.092;-1.640;2024-03-08T12:47:24;7.00;;;4.00;;
74926;SDS011;63488;48.092;-1.640;2024-03-08T12:49:50;8.07;;;4.43;;
74926;SDS011;63488;48.092;-1.640;2024-03-08T12:52:15;6.15;;;3.85;;
74926;SDS011;63488;48.092;-1.640;2024-03-08T12:54:43;8.07;;;4.00;;
74926;SDS011;63488;48.092;-1.640;2024-03-08T12:57:08;7.50;;;4.40;;
74926;SDS011;63488;48.092;-1.640;2024-03-08T12:59:34;8.32;;;4.13;;
74926;SDS011;63488;48.092;-1.640;2024-03-08T13:01:59;7.07;;;4.25;;
74926;SDS011;63488;48.092;-1.640;2024-03-08T13:04:25;5.47;;;3.47;;
74926;SDS011;63488;48.092;-1.640;2024-03-08T13:06:50;10.30;;;4.50;;
74926;SDS011;63488;48.092;-1.640;2024-03-08T13:09:16;5.68;;;3.40;;
74926;SDS011;63488;48.092;-1.640;2024-03-08T13:11:44;6.28;;;3.28;;
74926;SDS011;63488;48.092;-1.640;2024-03-08T13:14:10;6.93;;;3.55;;
74926;SDS011;63488;48.092;-1.640;2024-03-08T13:16:35;5.22;;;3.40;;
74926;SDS011;63488;48.092;-1.640;2024-03-08T13:19:01;7.15;;;3.67;;
74926;SDS011;63488;48.092;-1.640;2024-03-08T13:21:26;6.55;;;3.30;;
74926;SDS011;63488;48.092;-1.640;2024-03-08T13:23:51;7.47;;;3.50;;
74926;SDS011;63488;48.092;-1.640;2024-03-08T13:26:18;7.28;;;3.08;;
74926;SDS011;63488;48.092;-1.640;2024-03-08T13:28:46;7.40;;;3.83;;
74926;SDS011;63488;48.092;-1.640;2024-03-08T13:31:13;9.23;;;3.33;;
74926;SDS011;63488;48.092;-1.640;2024-03-08T13:33:40;5.85;;;3.33;;
74926;SDS011;63488;48.092;-1.640;2024-03-08T13:36:07;5.47;;;3.67;;
74926;SDS011;63488;48.092;-1.640;2024-03-08T13:38:40;5.53;;;3.30;;
74926;SDS011;63488;48.092;-1.640;2024-03-08T13:41:08;5.72;;;3.55;;
74926;SDS011;63488;48.092;-1.640;2024-03-08T13:43:33;8.07;;;3.72;;
74926;SDS011;63488;48.092;-1.640;2024-03-08T13:46:01;6.90;;;3.80;;
74926;SDS011;63488;48.092;-1.640;2024-03-08T13:48:26;8.48;;;3.55;;
74926;SDS011;63488;48.092;-1.640;2024-03-08T13:50:52;5.85;;;3.78;;
74926;SDS011;63488;48.092;-1.640;2024-03-08T13:53:17;8.38;;;3.83;;
74926;SDS011;63488;48.092;-1.640;2024-03-08T13:55:43;7.82;;;4.30;;
74926;SDS011;63488;48.092;-1.640;2024-03-08T13:58:08;6.82;;;3.90;;
74926;SDS011;63488;48.092;-1.640;2024-03-08T14:00:35;7.03;;;4.13;;
74926;SDS011;63488;48.092;-1.640;2024-03-08T14:03:01;5.53;;;3.65;;
74926;SDS011;63488;48.092;-1.640;2024-03-08T14:05:30;8.18;;;4.20;;
74926;SDS011;63488;48.092;-1.640;2024-03-08T14:08:00;8.73;;;4.82;;
74926;SDS011;63488;48.092;-1.640;2024-03-08T14:10:26;7.05;;;4.40;;
74926;SDS011;63488;48.092;-1.640;2024-03-08T14:12:52;9.05;;;4.80;;
74926;SDS011;63488;48.092;-1.640;2024-03-08T14:15:17;7.82;;;4.05;;
74926;SDS011;63488;48.092;-1.640;2024-03-08T14:17:43;7.63;;;4.13;;
74926;SDS011;63488;48.092;-1.640;2024-03-08T14:20:11;6.53;;;4.05;;
74926;SDS011;63488;48.092;-1.640;2024-03-08T14:22:38;7.40;;;4.25;;
74926;SDS011;63488;48.092;-1.640;2024-03-08T14:25:03;6.07;;;3.58;;
74926;SDS011;63488;48.092;-1.640;2024-03-08T14:27:30;7.18;;;3.60;;
74926;SDS011;63488;48.092;-1.640;2024-03-08T14:29:56;7.50;;;3.80;;
74926;SDS011;63488;48.092;-1.640;2024-03-08T14:32:21;6.68;;;3.60;;
74926;SDS011;63488;48.092;-1.640;2024-03-08T14:34:48;6.13;;;3.33;;